Time;durP1;ratioP1;P1;durP2;ratioP2;P2;SDS_P1;SDS_P2;PMS_P1;PMS_P2;Temp;Humidity;BMP_temperature;BMP_pressure;BME280_temperature;BME280_humidity;BME280_pressure;Samples;Min_cycle;Max_cycle;Signal;HPM_P1;HPM_P2
2023/06/19 00:00:48;;;;;;;;;;;;;;;21.48;69.72;100752.31;4967615;28;19921;-72
2023/06/19 00:03:14;;;;;;;;;;;;;;;21.44;70.29;100770.69;4963773;28;19956;-73
2023/06/19 00:05:39;;;;;;;;;;;;;;;21.40;70.72;100773.16;4971609;28;19914;-71
2023/06/19 00:08:06;;;;;;;;;;;;;;;21.43;71.04;100763.44;4968316;28;19961;-73
2023/06/19 00:10:31;;;;;;;;;;;;;;;21.38;70.96;100766.19;4970033;28;19941;-74
2023/06/19 00:12:56;;;;;;;;;;;;;;;21.41;71.41;100772.06;4965656;28;19918;-73
2023/06/19 00:15:22;;;;;;;;;;;;;;;21.37;71.68;100770.09;4954620;28;20020;-73
2023/06/19 00:17:48;;;;;;;;;;;;;;;21.34;72.04;100779.81;4954431;28;19917;-73
2023/06/19 00:20:13;;;;;;;;;;;;;;;21.36;72.17;100782.34;4969340;28;19941;-73
2023/06/19 00:22:38;;;;;;;;;;;;;;;21.23;72.99;100788.41;4970486;28;19914;-73
2023/06/19 00:25:04;;;;;;;;;;;;;;;21.23;73.23;100775.28;4971209;28;19922;-74
2023/06/19 00:27:29;;;;;;;;;;;;;;;21.10;74.50;100774.91;4957360;28;19953;-76
2023/06/19 00:30:01;;;;;;;;;;;;;;;21.09;74.87;100776.03;4969403;28;19914;-73
2023/06/19 00:32:26;;;;;;;;;;;;;;;21.08;75.65;100779.94;4970820;28;19918;-74
2023/06/19 00:34:51;;;;;;;;;;;;;;;21.01;76.52;100779.31;4954164;28;20060;-73
2023/06/19 00:37:17;;;;;;;;;;;;;;;20.99;77.11;100790.72;4952024;28;20662;-74
2023/06/19 00:39:42;;;;;;;;;;;;;;;20.93;77.75;100780.66;4972030;28;19918;-74
2023/06/19 00:42:07;;;;;;;;;;;;;;;20.89;78.06;100785.06;4969829;28;20380;-73
2023/06/19 00:44:33;;;;;;;;;;;;;;;20.86;78.70;100793.09;4951192;28;19920;-74
2023/06/19 00:47:00;;;;;;;;;;;;;;;20.80;79.50;100780.25;4970414;28;19961;-74
2023/06/19 00:49:26;;;;;;;;;;;;;;;20.76;79.96;100787.44;4969390;28;20476;-73
2023/06/19 00:51:52;;;;;;;;;;;;;;;20.76;80.83;100787.44;4951127;28;19920;-73
2023/06/19 00:54:17;;;;;;;;;;;;;;;20.73;81.10;100788.81;4953206;28;19918;-73
2023/06/19 00:56:43;;;;;;;;;;;;;;;20.68;81.68;100787.91;4957735;28;20393;-73
2023/06/19 00:59:14;;;;;;;;;;;;;;;20.63;82.27;100785.06;4964896;28;20052;-72
2023/06/19 01:01:40;;;;;;;;;;;;;;;20.61;83.05;100790.94;4968726;28;19914;-71
2023/06/19 01:04:05;;;;;;;;;;;;;;;20.55;83.86;100797.53;4971710;28;19914;-70
2023/06/19 01:06:38;;;;;;;;;;;;;;;20.53;84.45;100793.31;4973618;28;19913;-69
2023/06/19 01:09:07;;;;;;;;;;;;;;;20.51;84.99;100781.63;4971850;28;19973;-71
2023/06/19 01:11:34;;;;;;;;;;;;;;;20.49;85.26;100786.63;4956285;28;19918;-70
2023/06/19 01:14:00;;;;;;;;;;;;;;;20.54;85.36;100789.47;4963904;28;20352;-71
2023/06/19 01:16:27;;;;;;;;;;;;;;;20.51;85.34;100790.81;4972321;28;19914;-71
2023/06/19 01:18:53;;;;;;;;;;;;;;;20.56;85.46;100788.09;4961347;28;19929;-71
2023/06/19 01:21:18;;;;;;;;;;;;;;;20.50;85.95;100788.31;4973811;28;19914;-71
2023/06/19 01:23:44;;;;;;;;;;;;;;;20.53;85.73;100793.31;4955086;28;20382;-72
2023/06/19 01:26:10;;;;;;;;;;;;;;;20.48;86.44;100790.53;4952666;28;19914;-70
2023/06/19 01:28:37;;;;;;;;;;;;;;;20.55;86.22;100796.69;4954353;28;19914;-71
2023/06/19 01:31:03;;;;;;;;;;;;;;;20.53;86.34;100785.81;4951631;28;19918;-71
2023/06/19 01:33:31;;;;;;;;;;;;;;;20.54;86.36;100781.09;4971483;28;19940;-72
2023/06/19 01:35:57;;;;;;;;;;;;;;;20.45;86.91;100785.47;4952797;28;20403;-71
2023/06/19 01:38:25;;;;;;;;;;;;;;;20.43;87.31;100788.50;4967511;28;19922;-70
2023/06/19 01:40:52;;;;;;;;;;;;;;;20.40;87.58;100777.91;4969450;28;19917;-70
2023/06/19 01:43:17;;;;;;;;;;;;;;;20.37;87.82;100784.00;4972446;28;19963;-72
2023/06/19 01:45:43;;;;;;;;;;;;;;;20.38;88.02;100787.63;4971541;28;20016;-71
2023/06/19 01:48:08;;;;;;;;;;;;;;;20.39;88.05;100792.91;4972710;28;20309;-70
2023/06/19 01:50:34;;;;;;;;;;;;;;;20.43;87.98;100804.38;4969811;28;19914;-70
2023/06/19 01:52:59;;;;;;;;;;;;;;;20.45;87.98;100803.03;4971958;28;19922;-70
2023/06/19 01:55:24;;;;;;;;;;;;;;;20.41;88.16;100803.78;4954541;28;20004;-69
2023/06/19 01:57:50;;;;;;;;;;;;;;;20.37;88.69;100806.25;4969210;28;19945;-70
2023/06/19 02:00:15;;;;;;;;;;;;;;;20.35;88.59;100797.34;4971974;28;20689;-71
2023/06/19 02:02:40;;;;;;;;;;;;;;;20.42;88.86;100811.03;4968000;28;19914;-71
2023/06/19 02:05:06;;;;;;;;;;;;;;;20.37;89.16;100813.75;4972151;28;19920;-71
2023/06/19 02:07:31;;;;;;;;;;;;;;;20.35;89.47;100816.81;4970752;28;19929;-70
2023/06/19 02:09:57;;;;;;;;;;;;;;;20.33;89.58;100809.84;4971374;28;19925;-70
2023/06/19 02:12:22;;;;;;;;;;;;;;;20.30;90.22;100815.91;4971820;28;20313;-71
2023/06/19 02:14:47;;;;;;;;;;;;;;;20.32;90.35;100813.72;4972104;28;20387;-71
2023/06/19 02:17:13;;;;;;;;;;;;;;;20.36;90.18;100818.50;4971431;28;20750;-71
2023/06/19 02:19:38;;;;;;;;;;;;;;;20.33;90.34;100820.97;4954594;28;19929;-70
2023/06/19 02:22:03;;;;;;;;;;;;;;;20.36;90.79;100834.34;4954691;28;19921;-70
2023/06/19 02:24:29;;;;;;;;;;;;;;;20.25;91.99;100835.31;4952868;28;20302;-71
2023/06/19 02:26:54;;;;;;;;;;;;;;;20.18;93.42;100843.03;4970086;28;19917;-71
2023/06/19 02:29:20;;;;;;;;;;;;;;;20.08;95.14;100834.56;4970242;28;20703;-71
2023/06/19 02:31:45;;;;;;;;;;;;;;;20.05;95.77;100851.72;4972225;28;19918;-71
2023/06/19 02:34:10;;;;;;;;;;;;;;;19.96;97.38;100842.19;4952043;28;19914;-71
2023/06/19 02:36:36;;;;;;;;;;;;;;;19.91;98.73;100854.06;4970034;28;19918;-73
2023/06/19 02:39:01;;;;;;;;;;;;;;;19.84;100.00;100861.75;4969229;28;20469;-73
2023/06/19 02:41:27;;;;;;;;;;;;;;;19.73;100.00;100853.53;4970352;28;20021;-73
2023/06/19 02:43:52;;;;;;;;;;;;;;;19.67;100.00;100858.19;4953361;28;19984;-72
2023/06/19 02:46:17;;;;;;;;;;;;;;;19.63;100.00;100865.34;4967849;28;19987;-72
2023/06/19 02:48:43;;;;;;;;;;;;;;;19.56;100.00;100869.41;4970842;28;19949;-73
2023/06/19 02:51:08;;;;;;;;;;;;;;;19.49;100.00;100874.31;4972457;28;20054;-72
2023/06/19 02:53:33;;;;;;;;;;;;;;;19.49;100.00;100874.31;4970968;28;19968;-73
2023/06/19 02:56:00;;;;;;;;;;;;;;;19.50;100.00;100876.84;4971931;28;20270;-71
2023/06/19 02:58:26;;;;;;;;;;;;;;;19.49;100.00;100880.72;4972366;28;19922;-71
2023/06/19 03:00:52;;;;;;;;;;;;;;;19.50;100.00;100873.22;4956136;28;19913;-72
2023/06/19 03:03:17;;;;;;;;;;;;;;;19.49;100.00;100885.41;4954266;28;19971;-72
2023/06/19 03:05:42;;;;;;;;;;;;;;;19.49;100.00;100890.97;4970122;28;19997;-73
2023/06/19 03:08:08;;;;;;;;;;;;;;;19.50;100.00;100889.88;4970954;28;19918;-73
2023/06/19 03:10:33;;;;;;;;;;;;;;;19.48;100.00;100892.09;4971511;28;20232;-72
2023/06/19 03:12:58;;;;;;;;;;;;;;;19.46;100.00;100885.91;4971306;28;19976;-73
2023/06/19 03:15:24;;;;;;;;;;;;;;;19.48;100.00;100901.25;4949460;28;20314;-73
2023/06/19 03:17:49;;;;;;;;;;;;;;;19.48;100.00;100895.69;4971951;28;19921;-73
2023/06/19 03:20:15;;;;;;;;;;;;;;;19.47;100.00;100901.53;4949693;28;19918;-73
2023/06/19 03:22:40;;;;;;;;;;;;;;;19.46;100.00;100903.44;4954451;28;20370;-73
2023/06/19 03:25:06;;;;;;;;;;;;;;;19.46;100.00;100897.88;4968762;28;19925;-73
2023/06/19 03:27:31;;;;;;;;;;;;;;;19.47;100.00;100912.63;4971071;28;19957;-73
2023/06/19 03:29:57;;;;;;;;;;;;;;;19.48;100.00;100911.53;4971393;28;20025;-73
2023/06/19 03:32:22;;;;;;;;;;;;;;;19.51;100.00;100920.19;4968742;28;20275;-74
2023/06/19 03:34:48;;;;;;;;;;;;;;;19.54;100.00;100916.91;4968940;28;20301;-73
2023/06/19 03:37:13;;;;;;;;;;;;;;;19.43;100.00;100928.13;4967671;28;19914;-73
2023/06/19 03:39:38;;;;;;;;;;;;;;;19.45;100.00;100921.22;4971216;28;20075;-72
2023/06/19 03:42:04;;;;;;;;;;;;;;;19.46;100.00;100922.03;4954369;28;20373;-73
2023/06/19 03:44:29;;;;;;;;;;;;;;;19.44;100.00;100915.91;4972633;28;19910;-73
2023/06/19 03:46:55;;;;;;;;;;;;;;;19.41;100.00;100925.59;4954709;28;19979;-72
2023/06/19 03:49:20;;;;;;;;;;;;;;;19.50;100.00;100928.78;4967386;28;20392;-72
2023/06/19 03:51:45;;;;;;;;;;;;;;;19.45;100.00;100940.66;4969658;28;20441;-72
2023/06/19 03:54:10;;;;;;;;;;;;;;;19.45;100.00;100939.81;4952050;28;19925;-74
2023/06/19 03:56:36;;;;;;;;;;;;;;;19.44;100.00;100939.00;4970217;28;20000;-74
2023/06/19 03:59:01;;;;;;;;;;;;;;;19.41;100.00;100936.69;4967798;28;19925;-74
2023/06/19 04:01:26;;;;;;;;;;;;;;;19.45;100.00;100942.59;4971949;28;20323;-73
2023/06/19 04:03:52;;;;;;;;;;;;;;;19.50;99.92;100953.78;4952212;28;20386;-73
2023/06/19 04:06:17;;;;;;;;;;;;;;;19.48;100.00;100958.78;4965396;28;19924;-73
2023/06/19 04:08:42;;;;;;;;;;;;;;;19.45;100.00;100950.94;4969806;28;19941;-73
2023/06/19 04:11:07;;;;;;;;;;;;;;;19.48;100.00;100961.56;4950458;28;19969;-73
2023/06/19 04:13:33;;;;;;;;;;;;;;;19.44;100.00;100961.22;4970902;28;20378;-74
2023/06/19 04:15:58;;;;;;;;;;;;;;;19.45;100.00;100967.59;4968037;28;19914;-74
2023/06/19 04:18:23;;;;;;;;;;;;;;;19.50;100.00;100970.47;4969255;28;19924;-73
2023/06/19 04:20:49;;;;;;;;;;;;;;;19.51;100.00;100972.16;4972340;28;19917;-73
2023/06/19 04:23:14;;;;;;;;;;;;;;;19.46;100.00;100964.56;4971694;28;19957;-72
2023/06/19 04:25:39;;;;;;;;;;;;;;;19.45;100.00;100971.25;4975115;28;19996;-74
2023/06/19 04:28:04;;;;;;;;;;;;;;;19.42;100.00;100976.47;4971987;28;20002;-74
2023/06/19 04:30:30;;;;;;;;;;;;;;;19.37;100.00;100973.59;4970285;28;19924;-74
2023/06/19 04:32:57;;;;;;;;;;;;;;;19.36;100.00;100988.59;4952259;28;19914;-74
2023/06/19 04:35:23;;;;;;;;;;;;;;;19.40;100.00;101001.72;4968248;28;20326;-74
2023/06/19 04:37:48;;;;;;;;;;;;;;;19.25;100.00;100995.88;4951155;28;19929;-74
2023/06/19 04:40:14;;;;;;;;;;;;;;;19.15;100.00;101000.38;4953945;28;19922;-73
2023/06/19 04:42:39;;;;;;;;;;;;;;;19.11;100.00;101007.53;4952395;28;19917;-73
2023/06/19 04:45:07;;;;;;;;;;;;;;;18.98;100.00;100999.47;4959440;28;20340;-73
2023/06/19 04:47:32;;;;;;;;;;;;;;;19.03;99.66;101011.53;4952569;28;19964;-73
2023/06/19 04:49:58;;;;;;;;;;;;;;;18.98;99.20;101013.34;4953176;28;20361;-73
2023/06/19 04:52:23;;;;;;;;;;;;;;;18.96;99.46;101029.44;4971723;28;19921;-72
2023/06/19 04:54:48;;;;;;;;;;;;;;;18.93;99.40;101030.78;4967616;28;19962;-73
2023/06/19 04:57:14;;;;;;;;;;;;;;;18.94;99.33;101026.91;4954472;28;20058;-73
2023/06/19 04:59:39;;;;;;;;;;;;;;;19.00;98.94;101030.63;4973912;28;20317;-73
2023/06/19 05:02:04;;;;;;;;;;;;;;;18.98;98.37;101028.09;4972598;28;19918;-73
2023/06/19 05:04:32;;;;;;;;;;;;;;;19.05;98.33;101036.28;4974081;28;20411;-73
2023/06/19 05:06:58;;;;;;;;;;;;;;;19.12;96.97;101034.19;4971504;28;19961;-73
2023/06/19 05:09:23;;;;;;;;;;;;;;;19.16;96.38;101035.41;4970508;28;19957;-73
2023/06/19 05:11:48;;;;;;;;;;;;;;;19.26;95.60;101033.66;4973037;28;19914;-74
2023/06/19 05:14:14;;;;;;;;;;;;;;;19.40;94.46;101031.41;4966946;28;19918;-74
2023/06/19 05:16:39;;;;;;;;;;;;;;;19.58;93.04;101034.81;4972105;28;20399;-72
2023/06/19 05:19:05;;;;;;;;;;;;;;;19.59;92.47;101036.50;4973943;28;20321;-74
2023/06/19 05:21:30;;;;;;;;;;;;;;;19.69;92.67;101041.41;4969418;28;20000;-74
2023/06/19 05:23:56;;;;;;;;;;;;;;;19.61;93.14;101045.44;4972771;28;20306;-74
2023/06/19 05:26:22;;;;;;;;;;;;;;;19.63;93.00;101048.81;4972189;28;19914;-74
2023/06/19 05:28:48;;;;;;;;;;;;;;;19.54;93.32;101055.84;4966879;28;19918;-75
2023/06/19 05:31:13;;;;;;;;;;;;;;;19.50;93.45;101051.06;4970053;28;20377;-76
2023/06/19 05:33:38;;;;;;;;;;;;;;;19.51;93.36;101061.94;4965225;28;19921;-75
2023/06/19 05:36:04;;;;;;;;;;;;;;;19.53;93.11;101053.34;4967219;28;19917;-75
2023/06/19 05:38:30;;;;;;;;;;;;;;;19.54;91.79;101061.41;4968838;28;19926;-75
2023/06/19 05:40:56;;;;;;;;;;;;;;;19.43;92.09;101067.06;4970572;28;19913;-75
2023/06/19 05:43:22;;;;;;;;;;;;;;;19.27;91.59;101076.19;4969582;28;19922;-75
2023/06/19 05:45:47;;;;;;;;;;;;;;;19.23;91.02;101077.78;4974182;28;19922;-75
2023/06/19 05:48:12;;;;;;;;;;;;;;;19.18;91.41;101078.50;4970766;28;20369;-76
2023/06/19 05:50:38;;;;;;;;;;;;;;;19.22;91.39;101076.91;4970208;28;19914;-76
2023/06/19 05:53:03;;;;;;;;;;;;;;;19.22;91.36;101085.25;4952385;28;19967;-76
2023/06/19 05:55:28;;;;;;;;;;;;;;;19.23;91.47;101094.44;4971730;28;19920;-75
2023/06/19 05:57:55;;;;;;;;;;;;;;;19.20;90.98;101090.19;4970503;28;19957;-76
2023/06/19 06:00:20;;;;;;;;;;;;;;;19.14;91.34;101095.88;4970923;28;19924;-76
2023/06/19 06:02:46;;;;;;;;;;;;;;;19.10;91.04;101098.31;4953480;28;19918;-76
2023/06/19 06:05:11;;;;;;;;;;;;;;;19.05;91.26;101105.72;4971739;28;19941;-76
2023/06/19 06:07:37;;;;;;;;;;;;;;;19.14;90.90;101104.22;4967985;28;19980;-77
2023/06/19 06:10:02;;;;;;;;;;;;;;;19.05;90.34;101108.50;4971353;28;19918;-76
2023/06/19 06:12:27;;;;;;;;;;;;;;;19.05;90.97;101114.06;4970523;28;19921;-76
2023/06/19 06:14:53;;;;;;;;;;;;;;;19.07;89.94;101109.94;4953453;28;20052;-77
2023/06/19 06:17:18;;;;;;;;;;;;;;;19.11;89.56;101121.38;4970222;28;19924;-76
2023/06/19 06:19:43;;;;;;;;;;;;;;;19.09;90.52;101126.31;4973957;28;19985;-75
2023/06/19 06:22:08;;;;;;;;;;;;;;;19.13;90.08;101130.31;4961407;28;19914;-77
2023/06/19 06:24:34;;;;;;;;;;;;;;;18.94;90.34;101128.81;4955016;28;19946;-76
2023/06/19 06:26:59;;;;;;;;;;;;;;;18.89;90.82;101146.19;4954512;28;20390;-76
2023/06/19 06:29:24;;;;;;;;;;;;;;;18.96;90.81;101141.34;4966788;28;19917;-77
2023/06/19 06:31:52;;;;;;;;;;;;;;;18.95;91.11;101144.38;4943089;28;19957;-76
2023/06/19 06:34:18;;;;;;;;;;;;;;;19.00;90.30;101152.81;4949987;28;20328;-77
2023/06/19 06:36:43;;;;;;;;;;;;;;;18.96;90.50;101159.94;4966390;28;20013;-76
2023/06/19 06:39:08;;;;;;;;;;;;;;;18.88;90.85;101165.88;4965353;28;20310;-76
2023/06/19 06:41:34;;;;;;;;;;;;;;;19.04;89.56;101173.47;4957062;28;20000;-76
2023/06/19 06:43:59;;;;;;;;;;;;;;;19.02;89.88;101173.69;4966218;28;20010;-76
2023/06/19 06:46:24;;;;;;;;;;;;;;;19.08;89.19;101166.31;4965571;28;20068;-76
2023/06/19 06:48:50;;;;;;;;;;;;;;;19.09;88.80;101173.53;4965307;28;19917;-76
2023/06/19 06:51:15;;;;;;;;;;;;;;;19.08;88.53;101169.06;4949072;28;19918;-76
2023/06/19 06:53:40;;;;;;;;;;;;;;;19.24;88.03;101183.09;4951337;28;19965;-75
2023/06/19 06:56:05;;;;;;;;;;;;;;;19.15;87.79;101175.38;4949494;28;19922;-76
2023/06/19 06:58:31;;;;;;;;;;;;;;;19.14;88.17;101188.41;4964891;28;19918;-76
2023/06/19 07:00:56;;;;;;;;;;;;;;;19.22;87.73;101190.00;4939441;28;19918;-77
2023/06/19 07:03:21;;;;;;;;;;;;;;;19.14;87.95;101196.72;4964143;28;19918;-76
2023/06/19 07:05:50;;;;;;;;;;;;;;;19.12;88.73;101198.06;4963199;28;19918;-77
2023/06/19 07:08:15;;;;;;;;;;;;;;;19.28;88.48;101197.34;4964826;28;19925;-76
2023/06/19 07:10:40;;;;;;;;;;;;;;;19.29;88.35;101197.09;4964711;28;20220;-77
2023/06/19 07:13:05;;;;;;;;;;;;;;;19.26;87.82;101203.13;4945832;28;19949;-77
2023/06/19 07:15:31;;;;;;;;;;;;;;;19.17;87.93;101204.59;4959248;28;20007;-77
2023/06/19 07:17:56;;;;;;;;;;;;;;;19.14;88.25;101213.41;4965174;28;19918;-79
2023/06/19 07:20:21;;;;;;;;;;;;;;;19.16;88.07;101208.44;4961031;28;20689;-76
2023/06/19 07:22:47;;;;;;;;;;;;;;;19.23;87.96;101214.75;4964543;28;19930;-77
2023/06/19 07:25:12;;;;;;;;;;;;;;;19.22;87.93;101213.03;4944180;28;19928;-76
2023/06/19 07:27:39;;;;;;;;;;;;;;;19.27;87.15;101215.09;4968515;28;20458;-77
2023/06/19 07:30:05;;;;;;;;;;;;;;;19.36;87.15;101225.56;4950420;28;20292;-76
2023/06/19 07:32:30;;;;;;;;;;;;;;;19.22;87.11;101220.53;4969158;28;19914;-77
2023/06/19 07:34:55;;;;;;;;;;;;;;;19.24;86.91;101223.91;4968071;28;19986;-77
2023/06/19 07:37:20;;;;;;;;;;;;;;;19.26;87.44;101222.56;4951486;28;19961;-76
2023/06/19 07:39:46;;;;;;;;;;;;;;;19.22;87.09;101217.75;4969634;28;20790;-76
2023/06/19 07:42:13;;;;;;;;;;;;;;;19.42;86.82;101227.38;4967980;28;19925;-77
2023/06/19 07:44:38;;;;;;;;;;;;;;;19.55;85.86;101231.81;4968489;28;19914;-77
2023/06/19 07:47:03;;;;;;;;;;;;;;;19.72;85.59;101228.00;4966098;28;20382;-77
2023/06/19 07:49:29;;;;;;;;;;;;;;;19.84;84.62;101233.53;4952070;28;20405;-77
2023/06/19 07:51:54;;;;;;;;;;;;;;;19.87;84.37;101235.78;4970960;28;19948;-77
2023/06/19 07:54:19;;;;;;;;;;;;;;;19.91;83.61;101239.78;4967315;28;20456;-76
2023/06/19 07:56:44;;;;;;;;;;;;;;;19.92;84.19;101241.47;4968263;28;20372;-77
2023/06/19 07:59:10;;;;;;;;;;;;;;;20.06;83.10;101234.50;4948931;28;19926;-77
2023/06/19 08:01:35;;;;;;;;;;;;;;;20.08;82.94;101238.75;4969208;28;19921;-76
2023/06/19 08:04:00;;;;;;;;;;;;;;;20.29;82.48;101237.19;4966458;28;19920;-76
2023/06/19 08:06:25;;;;;;;;;;;;;;;20.36;81.04;101246.22;4970217;28;19921;-77
2023/06/19 08:08:51;;;;;;;;;;;;;;;20.28;81.03;101243.84;4966930;28;19944;-77
2023/06/19 08:11:16;;;;;;;;;;;;;;;20.36;81.01;101251.78;4948914;28;20166;-77
2023/06/19 08:13:42;;;;;;;;;;;;;;;20.48;80.94;101252.56;4957130;28;19918;-77
2023/06/19 08:16:07;;;;;;;;;;;;;;;20.62;80.05;101265.91;4975351;28;19924;-77
2023/06/19 08:18:32;;;;;;;;;;;;;;;20.69;79.37;101260.13;4956617;28;19918;-76
2023/06/19 08:20:58;;;;;;;;;;;;;;;20.66;78.69;101261.47;4968173;28;19914;-76
2023/06/19 08:23:23;;;;;;;;;;;;;;;20.76;78.19;101260.84;4975218;28;20692;-76
2023/06/19 08:25:50;;;;;;;;;;;;;;;20.72;78.20;101266.06;4972051;28;19921;-77
2023/06/19 08:28:16;;;;;;;;;;;;;;;20.84;77.95;101266.81;4967624;28;19921;-76
2023/06/19 08:30:41;;;;;;;;;;;;;;;21.13;77.33;101270.38;4971569;28;19914;-76
2023/06/19 08:33:06;;;;;;;;;;;;;;;21.29;76.71;101264.72;4966963;28;19918;-76
2023/06/19 08:35:32;;;;;;;;;;;;;;;21.37;74.95;101269.03;4974278;28;20357;-76
2023/06/19 08:37:57;;;;;;;;;;;;;;;21.56;74.91;101262.06;4974159;28;19981;-76
2023/06/19 08:40:26;;;;;;;;;;;;;;;21.52;74.77;101260.88;4973255;28;19914;-76
2023/06/19 08:42:52;;;;;;;;;;;;;;;21.27;75.24;101264.16;4975221;28;20012;-76
2023/06/19 08:45:20;;;;;;;;;;;;;;;21.36;75.41;101267.34;4955550;28;19917;-76
2023/06/19 08:47:46;;;;;;;;;;;;;;;21.22;76.58;101266.88;4958071;28;19914;-77
2023/06/19 08:50:11;;;;;;;;;;;;;;;21.75;74.89;101277.38;4954285;28;19914;-76
2023/06/19 08:52:37;;;;;;;;;;;;;;;21.68;73.89;101283.16;4956031;28;19918;-76
2023/06/19 08:55:02;;;;;;;;;;;;;;;21.72;73.74;101287.09;4972297;28;20432;-76
2023/06/19 08:57:34;;;;;;;;;;;;;;;21.71;72.92;101279.03;4973363;28;19914;-76
2023/06/19 08:59:59;;;;;;;;;;;;;;;21.95;73.07;101288.78;4971666;28;20479;-76
2023/06/19 09:02:27;;;;;;;;;;;;;;;22.02;72.80;101292.22;4973377;28;19914;-76
2023/06/19 09:04:52;;;;;;;;;;;;;;;22.09;71.01;101290.09;4955322;28;19926;-76
2023/06/19 09:07:17;;;;;;;;;;;;;;;22.41;71.16;101294.59;4973292;28;20361;-76
2023/06/19 09:09:46;;;;;;;;;;;;;;;22.45;69.53;101306.97;4971640;28;19930;-76
2023/06/19 09:12:13;;;;;;;;;;;;;;;22.35;69.95;101297.63;4954738;28;19914;-76
2023/06/19 09:14:42;;;;;;;;;;;;;;;22.26;70.88;101297.22;4972134;28;19928;-75
2023/06/19 09:17:10;;;;;;;;;;;;;;;22.17;70.46;101306.34;4972912;28;19980;-75
2023/06/19 09:19:35;;;;;;;;;;;;;;;21.86;71.02;101316.31;4972495;28;19926;-75
2023/06/19 09:22:01;;;;;;;;;;;;;;;21.77;70.83;101315.06;4954255;28;20326;-75
2023/06/19 09:24:37;;;;;;;;;;;;;;;21.96;70.44;101313.66;4950321;28;19919;-75
2023/06/19 09:27:12;;;;;;;;;;;;;;;22.01;70.85;101321.22;4952171;28;19918;-75
2023/06/19 09:29:40;;;;;;;;;;;;;;;21.99;71.57;101326.25;4943749;28;19929;-75
2023/06/19 09:32:16;;;;;;;;;;;;;;;22.16;70.73;101327.00;4948263;28;20377;-75
2023/06/19 09:34:41;;;;;;;;;;;;;;;22.88;69.27;101322.75;4950452;28;20313;-75
2023/06/19 09:37:07;;;;;;;;;;;;;;;22.51;68.91;101333.84;4948954;29;19984;-75
2023/06/19 09:39:33;;;;;;;;;;;;;;;23.03;67.03;101337.69;4949030;28;21604;-75
2023/06/19 09:42:00;;;;;;;;;;;;;;;23.05;66.50;101345.81;4951013;28;19949;-75
2023/06/19 09:44:26;;;;;;;;;;;;;;;23.25;65.54;101334.78;4952698;28;19918;-76
2023/06/19 09:46:52;;;;;;;;;;;;;;;23.24;64.84;101341.50;4948566;28;19918;-75
2023/06/19 09:49:18;;;;;;;;;;;;;;;23.82;64.14;101336.56;4950399;29;20394;-75
2023/06/19 09:51:43;;;;;;;;;;;;;;;23.41;64.53;101331.00;4952623;28;20401;-75
2023/06/19 09:54:09;;;;;;;;;;;;;;;23.39;64.34;101331.28;4944453;28;19914;-75
2023/06/19 09:56:35;;;;;;;;;;;;;;;23.24;64.11;101344.28;4948983;29;19925;-75
2023/06/19 09:59:01;;;;;;;;;;;;;;;23.17;64.28;101344.56;4966854;28;19922;-75
2023/06/19 10:01:31;;;;;;;;;;;;;;;23.16;64.03;101342.81;4950742;28;20322;-75
2023/06/19 10:04:07;;;;;;;;;;;;;;;23.33;64.41;101342.69;4948127;28;19954;-76
2023/06/19 10:06:32;;;;;;;;;;;;;;;23.29;63.52;101341.53;4965322;28;19977;-75
2023/06/19 10:09:06;;;;;;;;;;;;;;;23.28;64.28;101337.91;4952534;28;19918;-75
2023/06/19 10:11:43;;;;;;;;;;;;;;;23.95;62.64;101335.28;4950177;29;19914;-75
2023/06/19 10:14:09;;;;;;;;;;;;;;;24.41;62.29;101331.50;4951568;28;19922;-75
2023/06/19 10:16:34;;;;;;;;;;;;;;;24.16;61.77;101343.47;4949964;29;20294;-75
2023/06/19 10:18:59;;;;;;;;;;;;;;;23.91;62.69;101343.34;4951944;29;19922;-75
2023/06/19 10:21:24;;;;;;;;;;;;;;;24.06;60.31;101337.00;4947163;29;20349;-75
2023/06/19 10:23:57;;;;;;;;;;;;;;;24.58;59.29;101338.56;4950200;28;19953;-75
2023/06/19 10:26:40;;;;;;;;;;;;;;;24.74;59.06;101333.81;4971386;28;20009;-75
2023/06/19 10:29:16;;;;;;;;;;;;;;;24.91;58.32;101340.03;4967073;28;19922;-75
2023/06/19 10:31:41;;;;;;;;;;;;;;;24.65;58.92;101343.91;4967257;28;19922;-75
2023/06/19 10:34:06;;;;;;;;;;;;;;;25.08;57.82;101338.59;4968145;28;20432;-75
2023/06/19 10:36:31;;;;;;;;;;;;;;;25.18;57.13;101344.22;4967944;28;20082;-75
2023/06/19 10:38:57;;;;;;;;;;;;;;;24.91;57.93;101340.84;4970660;28;19918;-75
2023/06/19 10:41:24;;;;;;;;;;;;;;;24.59;57.16;101336.63;4952730;28;19918;-76
2023/06/19 10:43:58;;;;;;;;;;;;;;;24.62;57.47;101336.06;4952474;28;19989;-75
2023/06/19 10:46:24;;;;;;;;;;;;;;;25.04;56.94;101325.44;4969815;28;19945;-75
2023/06/19 10:48:50;;;;;;;;;;;;;;;24.68;56.78;101329.31;4954429;28;20399;-75
2023/06/19 10:51:19;;;;;;;;;;;;;;;24.76;57.09;101326.00;4971131;28;19914;-75
2023/06/19 10:53:45;;;;;;;;;;;;;;;24.69;58.09;101319.78;4952853;28;19918;-75
2023/06/19 10:56:10;;;;;;;;;;;;;;;25.41;56.97;101328.78;4971160;28;19918;-75
2023/06/19 10:58:35;;;;;;;;;;;;;;;25.76;54.87;101320.28;4971047;28;19968;-75
2023/06/19 11:01:00;;;;;;;;;;;;;;;25.82;55.29;101311.56;4968110;28;19941;-75
2023/06/19 11:03:26;;;;;;;;;;;;;;;25.90;53.69;101310.97;4968280;28;19918;-75
2023/06/19 11:05:51;;;;;;;;;;;;;;;26.22;53.47;101331.09;4969762;28;19914;-75
2023/06/19 11:08:17;;;;;;;;;;;;;;;26.44;52.13;101325.91;4967580;28;19931;-75
2023/06/19 11:10:43;;;;;;;;;;;;;;;26.48;51.62;101337.38;4967078;28;20404;-75
2023/06/19 11:13:13;;;;;;;;;;;;;;;26.05;53.14;101326.94;4970135;28;19914;-75
2023/06/19 11:15:38;;;;;;;;;;;;;;;26.23;52.37;101326.28;4966093;28;19921;-75
2023/06/19 11:18:03;;;;;;;;;;;;;;;25.81;53.05;101334.28;4953656;28;19918;-74
2023/06/19 11:20:29;;;;;;;;;;;;;;;25.97;52.80;101334.00;4950566;28;20336;-76
2023/06/19 11:22:55;;;;;;;;;;;;;;;25.94;52.58;101340.16;4953547;28;19925;-74
2023/06/19 11:25:20;;;;;;;;;;;;;;;26.36;51.31;101342.53;4968431;28;19929;-75
2023/06/19 11:27:51;;;;;;;;;;;;;;;26.34;53.32;101336.34;4957355;28;19914;-75
2023/06/19 11:30:17;;;;;;;;;;;;;;;26.18;52.27;101338.41;4962613;28;19918;-75
2023/06/19 11:32:44;;;;;;;;;;;;;;;26.07;51.62;101331.16;4968932;28;19925;-75
2023/06/19 11:35:11;;;;;;;;;;;;;;;26.19;51.79;101333.63;4972133;28;19921;-75
2023/06/19 11:37:39;;;;;;;;;;;;;;;26.14;53.28;101333.66;4974884;28;19914;-74
2023/06/19 11:40:10;;;;;;;;;;;;;;;26.59;51.97;101337.09;4955628;28;20406;-74
2023/06/19 11:42:43;;;;;;;;;;;;;;;26.77;50.94;101330.75;4974276;28;19922;-75
2023/06/19 11:45:09;;;;;;;;;;;;;;;27.06;48.99;101339.25;4972245;28;19964;-75
2023/06/19 11:47:35;;;;;;;;;;;;;;;27.09;49.20;101336.69;4973758;28;19922;-75
2023/06/19 11:50:03;;;;;;;;;;;;;;;27.38;47.98;101336.75;4956384;28;19918;-75
2023/06/19 11:52:28;;;;;;;;;;;;;;;27.49;48.14;101330.72;4966499;28;19925;-75
2023/06/19 11:54:54;;;;;;;;;;;;;;;27.36;48.00;101333.41;4972506;28;19918;-75
2023/06/19 11:57:19;;;;;;;;;;;;;;;26.64;50.25;101334.25;4973764;28;19976;-74
2023/06/19 11:59:45;;;;;;;;;;;;;;;26.83;51.05;101337.19;4966198;28;19929;-74
2023/06/19 12:02:11;;;;;;;;;;;;;;;27.06;47.44;101336.44;4969255;28;19918;-76
2023/06/19 12:04:36;;;;;;;;;;;;;;;27.27;46.51;101337.97;4955486;28;20005;-74
2023/06/19 12:07:01;;;;;;;;;;;;;;;27.39;46.37;101325.19;4973379;28;19989;-75
2023/06/19 12:09:27;;;;;;;;;;;;;;;27.70;45.69;101326.53;4969423;28;19918;-75
2023/06/19 12:11:52;;;;;;;;;;;;;;;27.27;46.34;101321.09;4954239;28;19925;-75
2023/06/19 12:14:19;;;;;;;;;;;;;;;27.62;46.56;101340.41;4953334;28;19960;-75
2023/06/19 12:16:48;;;;;;;;;;;;;;;27.72;45.86;101340.31;4953270;28;19918;-75
2023/06/19 12:19:13;;;;;;;;;;;;;;;28.17;45.89;101337.81;4967228;28;20392;-75
2023/06/19 12:21:38;;;;;;;;;;;;;;;27.09;48.35;101339.50;4965942;28;19914;-74
2023/06/19 12:24:04;;;;;;;;;;;;;;;27.46;48.20;101341.72;4969534;28;19918;-75
2023/06/19 12:26:30;;;;;;;;;;;;;;;27.92;47.17;101345.75;4966727;28;20286;-75
2023/06/19 12:28:55;;;;;;;;;;;;;;;27.88;45.14;101339.88;4969026;28;19914;-71